SEH021 LGSO-LGAV
Flight info
| Callsign | SEH021 |
|---|---|
| Flight time | 0h 17m |
| Altitude | 9000 |
| Route | VARIX |
| Aircraft | AT45/M-SDFGIRY/S |
Departure
| Time | 2026-05-06 14:33 |
|---|---|
| Airport | Syros Airport (LGSO) |
Arrival
| Time | 2026-05-06 14:50 |
|---|---|
| Airport | Athens Eleftherios Venizelos International Airport (LGAV) |
| Time | Latitude | Longitude | Altitude | Speed | Heading |
|---|---|---|---|---|---|
| 2026-05-06 14:21 | 37.42221 | 24.94839 | 236 ft | 0 kts | 270° |
| 2026-05-06 14:31 | 37.42221 | 24.94854 | 238 ft | 1 kts | 281° |
| 2026-05-06 14:31 | 37.42219 | 24.94862 | 237 ft | 0 kts | 317° |
| 2026-05-06 14:31 | 37.42208 | 24.94873 | 237 ft | 4 kts | 323° |
| 2026-05-06 14:32 | 37.42205 | 24.94881 | 236 ft | 7 kts | 354° |
| 2026-05-06 14:32 | 37.42247 | 24.94979 | 237 ft | 16 kts | 132° |
| 2026-05-06 14:32 | 37.42250 | 24.94990 | 237 ft | 9 kts | 182° |
| 2026-05-06 14:32 | 37.42313 | 24.94994 | 239 ft | 0 kts | 183° |
| 2026-05-06 14:33 | 37.42087 | 24.94979 | 237 ft | 63 kts | 180° |
| 2026-05-06 14:33 | 37.41434 | 24.94989 | 352 ft | 118 kts | 170° |
| 2026-05-06 14:33 | 37.40645 | 24.95518 | 855 ft | 142 kts | 148° |
| 2026-05-06 14:33 | 37.39929 | 24.96526 | 1438 ft | 170 kts | 121° |
| 2026-05-06 14:34 | 37.39762 | 24.98063 | 1952 ft | 191 kts | 77° |
| 2026-05-06 14:34 | 37.40526 | 24.99457 | 2447 ft | 203 kts | 33° |
| 2026-05-06 14:34 | 37.41896 | 24.99925 | 2958 ft | 213 kts | 352° |
| 2026-05-06 14:34 | 37.43241 | 24.99157 | 3464 ft | 219 kts | 314° |
| 2026-05-06 14:35 | 37.44045 | 24.97524 | 3959 ft | 223 kts | 296° |
| 2026-05-06 14:35 | 37.44742 | 24.95735 | 4455 ft | 232 kts | 296° |
| 2026-05-06 14:35 | 37.45532 | 24.93939 | 4967 ft | 238 kts | 302° |
| 2026-05-06 14:35 | 37.46492 | 24.92223 | 5461 ft | 242 kts | 307° |
| 2026-05-06 14:36 | 37.47596 | 24.90590 | 5976 ft | 247 kts | 314° |
| 2026-05-06 14:36 | 37.48870 | 24.89107 | 6524 ft | 251 kts | 319° |
| 2026-05-06 14:36 | 37.50196 | 24.87698 | 7004 ft | 253 kts | 320° |
| 2026-05-06 14:36 | 37.51544 | 24.86269 | 7481 ft | 254 kts | 320° |
| 2026-05-06 14:37 | 37.52892 | 24.84815 | 7915 ft | 259 kts | 319° |
| 2026-05-06 14:37 | 37.54288 | 24.83270 | 7973 ft | 274 kts | 319° |
| 2026-05-06 14:37 | 37.55734 | 24.81657 | 7994 ft | 280 kts | 319° |
| 2026-05-06 14:37 | 37.57195 | 24.80024 | 8003 ft | 281 kts | 319° |
| 2026-05-06 14:38 | 37.58661 | 24.78388 | 8006 ft | 281 kts | 319° |
| 2026-05-06 14:38 | 37.60126 | 24.76749 | 8006 ft | 282 kts | 319° |
| 2026-05-06 14:38 | 37.61588 | 24.75111 | 8008 ft | 282 kts | 319° |
| 2026-05-06 14:38 | 37.63061 | 24.73465 | 8016 ft | 282 kts | 319° |
| 2026-05-06 14:39 | 37.64529 | 24.71822 | 8016 ft | 283 kts | 318° |
| 2026-05-06 14:39 | 37.65500 | 24.70735 | 8010 ft | 283 kts | 318° |
| 2026-05-06 14:39 | 37.66974 | 24.69081 | 8006 ft | 283 kts | 319° |
| 2026-05-06 14:39 | 37.68444 | 24.67435 | 8002 ft | 283 kts | 319° |
| 2026-05-06 14:40 | 37.69911 | 24.65785 | 7997 ft | 282 kts | 318° |
| 2026-05-06 14:40 | 37.71383 | 24.64135 | 7996 ft | 283 kts | 318° |
| 2026-05-06 14:40 | 37.72852 | 24.62482 | 8001 ft | 283 kts | 318° |
| 2026-05-06 14:40 | 37.74261 | 24.60745 | 7993 ft | 282 kts | 310° |
| 2026-05-06 14:41 | 37.75449 | 24.58783 | 8002 ft | 283 kts | 307° |
| 2026-05-06 14:41 | 37.76602 | 24.56757 | 7997 ft | 283 kts | 306° |
| 2026-05-06 14:41 | 37.77739 | 24.54714 | 7997 ft | 284 kts | 305° |
| 2026-05-06 14:41 | 37.78869 | 24.52668 | 7999 ft | 284 kts | 305° |
| 2026-05-06 14:42 | 37.79995 | 24.50618 | 7993 ft | 284 kts | 305° |
| 2026-05-06 14:42 | 37.81124 | 24.48559 | 8001 ft | 285 kts | 304° |
| 2026-05-06 14:42 | 37.82203 | 24.46444 | 7724 ft | 290 kts | 302° |
| 2026-05-06 14:42 | 37.83267 | 24.44261 | 7151 ft | 292 kts | 301° |
| 2026-05-06 14:43 | 37.84299 | 24.42093 | 6595 ft | 291 kts | 301° |
| 2026-05-06 14:43 | 37.85324 | 24.39899 | 6014 ft | 289 kts | 300° |
| 2026-05-06 14:43 | 37.86340 | 24.37713 | 5439 ft | 287 kts | 300° |
| 2026-05-06 14:43 | 37.87347 | 24.35543 | 4873 ft | 285 kts | 300° |
| 2026-05-06 14:44 | 37.88356 | 24.33380 | 4305 ft | 283 kts | 300° |
| 2026-05-06 14:44 | 37.89356 | 24.31240 | 3763 ft | 282 kts | 300° |
| 2026-05-06 14:44 | 37.90354 | 24.29115 | 3205 ft | 280 kts | 300° |
| 2026-05-06 14:45 | 37.92330 | 24.24923 | 2559 ft | 273 kts | 300° |
| 2026-05-06 14:45 | 37.93302 | 24.22864 | 2526 ft | 272 kts | 300° |
| 2026-05-06 14:45 | 37.94274 | 24.20806 | 2516 ft | 272 kts | 300° |
| 2026-05-06 14:45 | 37.95248 | 24.18757 | 2499 ft | 272 kts | 300° |
| 2026-05-06 14:46 | 37.96218 | 24.16712 | 2493 ft | 271 kts | 300° |
| 2026-05-06 14:46 | 37.97189 | 24.14665 | 2495 ft | 271 kts | 300° |
| 2026-05-06 14:46 | 37.98168 | 24.12611 | 2500 ft | 272 kts | 300° |
| 2026-05-06 14:46 | 37.99147 | 24.10561 | 2497 ft | 272 kts | 300° |
| 2026-05-06 14:47 | 38.00142 | 24.08489 | 2063 ft | 279 kts | 300° |
| 2026-05-06 14:47 | 38.01129 | 24.06460 | 1510 ft | 251 kts | 300° |
| 2026-05-06 14:47 | 38.02002 | 24.04705 | 1120 ft | 220 kts | 300° |
| 2026-05-06 14:47 | 38.02681 | 24.03103 | 1047 ft | 204 kts | 281° |
| 2026-05-06 14:48 | 38.02482 | 24.01343 | 1025 ft | 207 kts | 239° |
| 2026-05-06 14:48 | 38.01431 | 24.00165 | 1042 ft | 189 kts | 206° |
| 2026-05-06 14:48 | 38.00362 | 23.99548 | 1038 ft | 163 kts | 202° |
| 2026-05-06 14:48 | 37.99310 | 23.99031 | 1047 ft | 158 kts | 200° |
| 2026-05-06 14:49 | 37.98322 | 23.98584 | 1024 ft | 146 kts | 198° |
| 2026-05-06 14:49 | 37.97396 | 23.98179 | 950 ft | 138 kts | 194° |
| 2026-05-06 14:49 | 37.96467 | 23.97853 | 688 ft | 134 kts | 204° |
| 2026-05-06 14:49 | 37.95671 | 23.97428 | 479 ft | 121 kts | 210° |
| 2026-05-06 14:50 | 37.95015 | 23.96836 | 332 ft | 110 kts | 215° |
| 2026-05-06 14:50 | 37.94451 | 23.96285 | 301 ft | 100 kts | 219° |
| 2026-05-06 14:50 | 37.94207 | 23.96042 | 299 ft | 35 kts | 224° |
| 2026-05-06 14:50 | 37.94188 | 23.96007 | 299 ft | 0 kts | 275° |
| 2026-05-06 14:51 | 37.94188 | 23.96010 | 301 ft | 1 kts | 276° |
| 2026-05-06 14:51 | 37.94201 | 23.95991 | 299 ft | 6 kts | 334° |
| 2026-05-06 14:51 | 37.94295 | 23.96000 | 302 ft | 19 kts | 358° |
| 2026-05-06 14:51 | 37.94354 | 23.95895 | 302 ft | 13 kts | 284° |
| 2026-05-06 14:52 | 37.94342 | 23.95790 | 297 ft | 10 kts | 243° |
| 2026-05-06 14:52 | 37.94336 | 23.95725 | 294 ft | 3 kts | 270° |
| 2026-05-06 14:52 | 37.94313 | 23.95701 | 297 ft | 28 kts | 202° |
| 2026-05-06 14:52 | 37.94251 | 23.95655 | 296 ft | 14 kts | 254° |
| 2026-05-06 14:53 | 37.94311 | 23.95528 | 290 ft | 22 kts | 303° |
| 2026-05-06 14:53 | 37.94403 | 23.95410 | 282 ft | 7 kts | 330° |
| 2026-05-06 14:53 | 37.94412 | 23.95385 | 281 ft | 3 kts | 247° |
| 2026-05-06 14:53 | 37.94437 | 23.95431 | 282 ft | 10 kts | 207° |
| 2026-05-06 14:54 | 37.94438 | 23.95423 | 282 ft | 2 kts | 217° |
| 2026-05-06 14:54 | 37.94428 | 23.95413 | 282 ft | 1 kts | 218° |